Terminal Aerodrome Forecast
Issued by NWS Medford, OR

Home | Current Version | Previous Version | Text Only | Print | Product List | Glossary On
Versions: 1 2 3 4 5 6 7 8 9 10 11 12
000
FTUS46 KMFR 281100
TAFMFR
TAF
KMFR 281124Z 2812/2912 00000KT P6SM SKC
     FM282200 30006KT P6SM FEW100
     FM290000 30010KT P6SM SCT100
     FM290400 32005KT P6SM FEW120=

USA.gov is the U.S. government's official web portal to all federal, state and local government web resources and services.